createdAt,value
2019-03-27T00:00:30.364Z,4.53
2019-03-27T00:02:59.805Z,4.53
2019-03-27T00:05:29.203Z,4.51
2019-03-27T00:07:58.559Z,4.50
2019-03-27T00:10:27.943Z,4.50
2019-03-27T00:12:57.285Z,4.50
2019-03-27T00:15:26.894Z,4.48
2019-03-27T00:17:56.300Z,4.41
2019-03-27T00:20:25.654Z,4.43
2019-03-27T00:22:55.032Z,4.45
2019-03-27T00:25:24.377Z,4.41
2019-03-27T00:27:53.743Z,4.33
2019-03-27T00:30:23.095Z,4.34
2019-03-27T00:32:52.512Z,4.29
2019-03-27T00:35:21.977Z,4.27
2019-03-27T00:37:51.369Z,4.24
2019-03-27T00:40:20.696Z,4.25
2019-03-27T00:42:52.210Z,4.21
2019-03-27T00:45:26.814Z,4.20
2019-03-27T00:47:52.571Z,4.16
2019-03-27T00:50:22.130Z,4.16
2019-03-27T00:52:51.526Z,4.15
2019-03-27T00:55:21.184Z,4.17
2019-03-27T00:57:50.536Z,4.10
2019-03-27T01:00:28.396Z,4.07
2019-03-27T01:02:57.849Z,4.08
2019-03-27T01:05:27.227Z,4.05
2019-03-27T01:07:56.596Z,4.04
2019-03-27T01:10:26.084Z,4.04
2019-03-27T01:12:55.437Z,4.03
2019-03-27T01:15:24.793Z,4.05
2019-03-27T01:17:55.329Z,4.04
2019-03-27T01:20:24.656Z,4.04
2019-03-27T01:22:54.063Z,4.05
2019-03-27T01:25:23.429Z,4.05
2019-03-27T01:27:53.062Z,4.05
2019-03-27T01:30:22.519Z,4.08
2019-03-27T01:32:51.965Z,4.07
2019-03-27T01:35:21.298Z,4.08
2019-03-27T01:37:50.612Z,4.10
2019-03-27T01:40:20.090Z,4.07
2019-03-27T01:42:49.494Z,4.02
2019-03-27T01:45:18.875Z,3.99
2019-03-27T01:47:48.112Z,3.99
2019-03-27T01:50:17.599Z,3.97
2019-03-27T01:52:46.961Z,3.95
2019-03-27T01:55:16.359Z,3.92
2019-03-27T01:57:45.821Z,3.94
2019-03-27T02:00:15.380Z,3.95
2019-03-27T02:02:44.751Z,3.92
2019-03-27T02:05:14.237Z,3.90
2019-03-27T02:07:43.700Z,3.93
2019-03-27T02:10:13.171Z,3.89
2019-03-27T02:12:42.575Z,3.90
2019-03-27T02:15:12.190Z,3.87
2019-03-27T02:17:41.686Z,3.89
2019-03-27T02:20:11.213Z,3.91
2019-03-27T02:22:40.621Z,3.90
2019-03-27T02:25:10.181Z,3.91
2019-03-27T02:27:39.541Z,3.87
2019-03-27T02:30:09.424Z,3.88
2019-03-27T02:32:38.894Z,3.90
2019-03-27T02:35:08.260Z,3.87
2019-03-27T02:37:37.550Z,3.89
2019-03-27T02:40:07.493Z,3.89
2019-03-27T02:42:37.039Z,3.90
2019-03-27T02:45:06.562Z,3.89
2019-03-27T02:47:35.945Z,3.88
2019-03-27T02:50:05.526Z,3.90
2019-03-27T02:52:34.914Z,3.91
2019-03-27T02:55:04.515Z,3.89
2019-03-27T02:57:33.862Z,3.92
2019-03-27T03:00:03.295Z,3.93
2019-03-27T03:02:32.585Z,3.93
2019-03-27T03:05:01.996Z,3.93
2019-03-27T03:07:31.229Z,3.93
2019-03-27T03:10:00.562Z,3.93
2019-03-27T03:12:29.965Z,3.95
2019-03-27T03:14:59.214Z,3.93
2019-03-27T03:17:28.529Z,3.96
2019-03-27T03:19:57.845Z,3.95
2019-03-27T03:22:28.027Z,3.96
2019-03-27T03:24:57.408Z,3.99
2019-03-27T03:27:26.878Z,3.98
2019-03-27T03:29:56.166Z,3.97
2019-03-27T03:32:25.620Z,3.97
2019-03-27T03:34:54.897Z,3.96
2019-03-27T03:37:24.224Z,3.96
2019-03-27T03:39:53.596Z,3.94
2019-03-27T03:42:23.000Z,3.97
2019-03-27T03:44:52.404Z,3.99
2019-03-27T03:47:21.692Z,3.99
2019-03-27T03:49:51.014Z,4.00
2019-03-27T03:52:21.171Z,4.01
2019-03-27T03:54:50.910Z,4.01
2019-03-27T03:57:20.796Z,4.04
2019-03-27T03:59:51.079Z,4.05
2019-03-27T04:02:20.565Z,4.06
2019-03-27T04:04:50.579Z,4.06
2019-03-27T04:07:19.815Z,4.07
2019-03-27T04:09:49.242Z,4.06
2019-03-27T04:12:18.541Z,4.09
2019-03-27T04:14:47.898Z,4.08
2019-03-27T04:17:18.131Z,4.10
2019-03-27T04:19:47.388Z,4.08
2019-03-27T04:22:16.637Z,4.10
2019-03-27T04:24:45.863Z,4.09
2019-03-27T04:27:15.268Z,4.08
2019-03-27T04:29:44.616Z,4.09
2019-03-27T04:32:13.943Z,4.08
2019-03-27T04:34:47.202Z,4.09
2019-03-27T04:37:15.804Z,4.11
2019-03-27T04:39:45.287Z,4.12
2019-03-27T04:42:14.675Z,4.11
2019-03-27T04:44:44.271Z,4.13
2019-03-27T04:47:13.533Z,4.14
2019-03-27T04:49:43.075Z,4.16
2019-03-27T04:52:12.441Z,4.16
2019-03-27T04:54:41.856Z,4.14
2019-03-27T04:57:11.246Z,4.13
2019-03-27T04:59:40.685Z,4.15
2019-03-27T05:02:10.073Z,4.15
2019-03-27T05:04:39.769Z,4.13
2019-03-27T05:07:09.187Z,4.14
2019-03-27T05:09:38.706Z,4.13
2019-03-27T05:12:08.151Z,4.10
2019-03-27T05:14:37.505Z,4.11
2019-03-27T05:17:07.327Z,4.12
2019-03-27T05:19:36.600Z,4.12
2019-03-27T05:22:06.041Z,4.13
2019-03-27T05:24:35.321Z,4.11
2019-03-27T05:27:04.722Z,4.15
2019-03-27T05:29:34.090Z,4.15
2019-03-27T05:32:03.471Z,4.18
2019-03-27T05:34:32.782Z,4.16
2019-03-27T05:37:02.133Z,4.18
2019-03-27T05:39:32.883Z,4.17
2019-03-27T05:42:02.348Z,4.22
2019-03-27T05:44:31.761Z,4.21
2019-03-27T05:47:01.236Z,4.21
2019-03-27T05:49:30.735Z,4.22
2019-03-27T05:52:00.199Z,4.25
2019-03-27T05:54:29.635Z,4.27
2019-03-27T05:56:58.984Z,4.30
2019-03-27T05:59:28.389Z,4.33
2019-03-27T06:01:57.807Z,4.36
2019-03-27T06:04:29.311Z,4.39
2019-03-27T06:06:58.524Z,4.45
2019-03-27T06:09:27.942Z,4.51
2019-03-27T06:11:57.570Z,4.52
2019-03-27T06:14:27.020Z,4.56
2019-03-27T06:16:56.516Z,4.57
2019-03-27T06:19:26.081Z,4.59
2019-03-27T06:21:55.448Z,4.59
2019-03-27T06:24:24.819Z,4.61
2019-03-27T06:26:54.224Z,4.65
2019-03-27T06:29:23.667Z,4.66
2019-03-27T06:31:53.148Z,4.68
2019-03-27T06:34:22.634Z,4.72
2019-03-27T06:36:51.922Z,4.73
2019-03-27T06:39:22.929Z,4.77
2019-03-27T06:41:52.327Z,4.80
2019-03-27T06:44:21.724Z,4.81
2019-03-27T06:46:51.129Z,4.85
2019-03-27T06:49:20.538Z,4.88
2019-03-27T06:51:50.088Z,4.93
2019-03-27T06:54:19.576Z,4.98
2019-03-27T06:56:49.008Z,5.04
2019-03-27T06:59:18.417Z,5.04
2019-03-27T07:01:47.768Z,5.09
2019-03-27T07:04:17.088Z,5.10
2019-03-27T07:06:46.354Z,5.18
2019-03-27T07:09:15.775Z,5.22
2019-03-27T07:11:45.095Z,5.25
2019-03-27T07:14:14.456Z,5.26
2019-03-27T07:16:43.856Z,5.31
2019-03-27T07:19:13.369Z,5.34
2019-03-27T07:21:42.835Z,5.40
2019-03-27T07:24:12.200Z,5.43
2019-03-27T07:26:41.733Z,5.42
2019-03-27T07:29:11.103Z,5.46
2019-03-27T07:31:40.576Z,5.46
2019-03-27T07:34:09.978Z,5.47
2019-03-27T07:36:39.345Z,5.47
2019-03-27T07:39:11.123Z,5.41
2019-03-27T07:41:39.891Z,5.51
2019-03-27T07:44:09.243Z,5.57
2019-03-27T07:46:38.830Z,5.58
2019-03-27T07:49:08.114Z,5.62
2019-03-27T07:51:37.475Z,5.68
2019-03-27T07:54:07.104Z,5.71
2019-03-27T07:56:36.571Z,5.73
2019-03-27T07:59:06.049Z,5.82
2019-03-27T08:01:35.650Z,5.86
2019-03-27T08:04:04.981Z,5.88
2019-03-27T08:06:34.456Z,5.98
2019-03-27T08:09:05.378Z,6.01
2019-03-27T08:11:34.822Z,6.04
2019-03-27T08:14:04.388Z,6.09
2019-03-27T08:16:33.738Z,6.17
2019-03-27T08:19:07.911Z,6.18
2019-03-27T08:21:34.371Z,6.14
2019-03-27T08:24:03.723Z,6.18
2019-03-27T08:26:33.157Z,6.32
2019-03-27T08:29:02.565Z,6.42
2019-03-27T08:31:33.407Z,6.48
2019-03-27T08:34:02.985Z,6.49
2019-03-27T08:36:32.436Z,6.55
2019-03-27T08:39:01.892Z,6.62
2019-03-27T08:41:31.505Z,6.63
2019-03-27T08:44:00.970Z,6.60
2019-03-27T08:46:30.421Z,6.71
2019-03-27T08:48:59.848Z,6.80
2019-03-27T08:51:29.236Z,6.84
2019-03-27T08:53:58.760Z,6.87
2019-03-27T08:56:28.171Z,6.85
2019-03-27T08:58:57.543Z,7.02
2019-03-27T09:01:27.067Z,7.09
2019-03-27T09:03:56.346Z,7.16
2019-03-27T09:06:33.726Z,7.22
2019-03-27T09:08:59.771Z,7.43
2019-03-27T09:11:29.170Z,7.44
2019-03-27T09:13:58.521Z,7.54
2019-03-27T09:16:27.896Z,7.85
2019-03-27T09:18:57.315Z,8.12
2019-03-27T09:21:26.630Z,8.20
2019-03-27T09:23:56.115Z,8.18
2019-03-27T09:26:25.493Z,8.20
2019-03-27T09:28:54.935Z,8.50
2019-03-27T09:31:24.393Z,8.95
2019-03-27T09:33:53.859Z,9.14
2019-03-27T09:36:23.130Z,9.35
2019-03-27T09:38:54.658Z,9.15
2019-03-27T09:41:24.007Z,9.22
2019-03-27T09:43:53.403Z,8.52
2019-03-27T09:46:22.692Z,8.58
2019-03-27T09:48:51.969Z,8.66
2019-03-27T09:51:21.411Z,8.73
2019-03-27T09:53:53.202Z,8.79
2019-03-27T09:56:21.895Z,8.93
2019-03-27T09:58:51.445Z,9.00
2019-03-27T10:01:20.787Z,8.96
2019-03-27T10:03:50.347Z,8.84
2019-03-27T10:06:19.743Z,8.39
2019-03-27T10:08:49.070Z,8.03
2019-03-27T10:11:18.413Z,7.85
2019-03-27T10:13:47.677Z,8.07
2019-03-27T10:16:17.042Z,8.15
2019-03-27T10:18:47.568Z,8.26
2019-03-27T10:21:18.325Z,8.25
2019-03-27T10:26:13.532Z,8.64
2019-03-27T10:28:42.872Z,8.79
2019-03-27T10:31:12.328Z,9.01
2019-03-27T10:33:41.680Z,9.05
2019-03-27T10:36:11.133Z,9.06
2019-03-27T10:38:41.834Z,8.91
2019-03-27T10:41:11.346Z,8.89
2019-03-27T10:43:40.772Z,8.83
2019-03-27T10:46:10.055Z,8.71
2019-03-27T10:48:51.738Z,8.75
2019-03-27T10:51:10.496Z,8.71
2019-03-27T10:53:39.840Z,8.71
2019-03-27T10:56:09.232Z,8.74
2019-03-27T10:58:38.633Z,8.94
2019-03-27T11:01:08.185Z,9.25
2019-03-27T11:03:37.618Z,9.50
2019-03-27T11:06:07.067Z,9.70
2019-03-27T11:08:36.450Z,9.83
2019-03-27T11:11:05.949Z,9.93
2019-03-27T11:13:35.399Z,10.32
2019-03-27T11:16:04.855Z,10.33
2019-03-27T11:18:34.283Z,10.21
2019-03-27T11:21:03.682Z,10.24
2019-03-27T11:23:33.157Z,10.22
2019-03-27T11:26:02.656Z,10.11
2019-03-27T11:28:32.215Z,10.27
2019-03-27T11:31:01.707Z,10.34
2019-03-27T11:33:30.998Z,10.25
2019-03-27T11:36:00.445Z,10.22
2019-03-27T11:38:29.921Z,10.20
2019-03-27T11:40:59.268Z,10.10
2019-03-27T11:43:28.756Z,10.02
2019-03-27T11:45:58.395Z,9.96
2019-03-27T11:48:27.904Z,9.81
2019-03-27T11:50:57.328Z,9.34
2019-03-27T11:53:26.891Z,9.72
2019-03-27T11:55:56.420Z,10.08
2019-03-27T11:58:25.807Z,10.27
2019-03-27T12:00:55.324Z,10.32
2019-03-27T12:03:24.816Z,10.39
2019-03-27T12:05:54.168Z,10.27
2019-03-27T12:08:23.561Z,10.25
2019-03-27T12:10:52.861Z,10.31
2019-03-27T12:13:22.222Z,10.25
2019-03-27T12:15:51.585Z,9.99
2019-03-27T12:18:22.134Z,9.96
2019-03-27T12:20:59.025Z,9.83
2019-03-27T12:23:22.867Z,9.90
2019-03-27T12:25:55.034Z,10.25
2019-03-27T12:28:23.419Z,10.24
2019-03-27T12:30:52.772Z,10.44
2019-03-27T12:33:22.262Z,10.40
2019-03-27T12:35:51.663Z,10.77
2019-03-27T12:38:21.111Z,10.47
2019-03-27T12:40:50.534Z,10.72
2019-03-27T12:43:19.964Z,11.20
2019-03-27T12:45:49.392Z,11.28
2019-03-27T12:48:18.913Z,11.35
2019-03-27T12:50:48.284Z,11.26
2019-03-27T12:53:17.783Z,11.19
2019-03-27T12:55:47.169Z,11.20
2019-03-27T12:58:16.540Z,10.88
2019-03-27T13:00:46.018Z,10.91
2019-03-27T13:03:15.552Z,10.65
2019-03-27T13:05:44.910Z,10.82
2019-03-27T13:08:14.381Z,11.04
2019-03-27T13:10:43.848Z,10.95
2019-03-27T13:13:13.205Z,10.99
2019-03-27T13:15:44.754Z,10.81
2019-03-27T13:18:13.779Z,10.98
2019-03-27T13:20:43.246Z,11.01
2019-03-27T13:23:12.668Z,11.04
2019-03-27T13:25:42.018Z,11.06
2019-03-27T13:28:11.429Z,10.89
2019-03-27T13:30:40.956Z,10.40
2019-03-27T13:33:10.374Z,10.85
2019-03-27T13:35:39.762Z,11.03
2019-03-27T13:38:11.031Z,10.97
2019-03-27T13:40:40.470Z,10.77
2019-03-27T13:43:10.057Z,10.95
2019-03-27T13:45:39.675Z,11.02
2019-03-27T13:48:10.097Z,10.82
2019-03-27T13:50:39.777Z,10.43
2019-03-27T13:53:09.290Z,10.82
2019-03-27T13:55:38.879Z,10.89
2019-03-27T13:58:08.311Z,10.82
2019-03-27T14:00:37.883Z,10.76
2019-03-27T14:03:07.198Z,10.30
2019-03-27T14:05:37.816Z,10.62
2019-03-27T14:08:07.279Z,10.74
2019-03-27T14:10:37.133Z,10.75
2019-03-27T14:13:06.679Z,10.69
2019-03-27T14:15:36.318Z,10.41
2019-03-27T14:18:06.060Z,10.52
2019-03-27T14:20:35.477Z,10.55
2019-03-27T14:23:05.078Z,10.72
2019-03-27T14:25:34.990Z,10.72
2019-03-27T14:28:04.504Z,10.47
2019-03-27T14:30:58.362Z,10.43
2019-03-27T14:33:28.804Z,10.58
2019-03-27T14:35:58.509Z,10.53
2019-03-27T14:38:28.050Z,10.36
2019-03-27T14:40:57.915Z,10.46
2019-03-27T14:43:35.095Z,10.43
2019-03-27T14:46:10.346Z,10.21
2019-03-27T14:48:43.540Z,10.37
2019-03-27T14:51:17.490Z,10.40
2019-03-27T14:53:49.156Z,10.29
2019-03-27T14:56:18.719Z,10.26
2019-03-27T14:58:48.360Z,10.30
2019-03-27T15:01:17.906Z,10.38
2019-03-27T15:03:47.360Z,10.42
2019-03-27T15:06:18.375Z,10.35
2019-03-27T15:08:50.915Z,10.31
2019-03-27T15:11:20.346Z,10.21
2019-03-27T15:13:50.014Z,10.34
2019-03-27T15:16:19.399Z,10.24
2019-03-27T15:18:52.383Z,10.28
2019-03-27T15:21:20.470Z,10.26
2019-03-27T15:23:49.841Z,10.22
2019-03-27T15:26:19.378Z,9.88
2019-03-27T15:28:50.782Z,9.83
2019-03-27T15:31:21.059Z,9.99
2019-03-27T15:33:50.476Z,10.04
2019-03-27T15:36:19.925Z,10.02
2019-03-27T15:38:49.701Z,10.02
2019-03-27T15:41:19.100Z,10.02
2019-03-27T15:43:48.460Z,9.95
2019-03-27T15:46:17.895Z,9.98
2019-03-27T15:48:47.325Z,9.84
2019-03-27T15:51:16.688Z,9.64
2019-03-27T15:53:47.395Z,9.55
2019-03-27T15:56:17.161Z,9.52
2019-03-27T15:58:46.746Z,9.56
2019-03-27T16:01:16.180Z,9.55
2019-03-27T16:03:45.761Z,9.57
2019-03-27T16:06:15.270Z,9.56
2019-03-27T16:08:44.723Z,9.56
2019-03-27T16:11:14.211Z,9.59
2019-03-27T16:13:43.676Z,9.52
2019-03-27T16:16:13.103Z,9.49
2019-03-27T16:18:42.515Z,9.49
2019-03-27T16:21:11.977Z,9.49
2019-03-27T16:23:41.315Z,9.38
2019-03-27T16:26:10.777Z,9.33
2019-03-27T16:28:40.156Z,9.22
2019-03-27T16:31:09.588Z,9.18
2019-03-27T16:33:38.965Z,9.20
2019-03-27T16:36:08.603Z,9.17
2019-03-27T16:38:41.467Z,9.17
2019-03-27T16:41:11.162Z,9.20
2019-03-27T16:43:43.961Z,9.19
2019-03-27T16:46:11.821Z,9.19
2019-03-27T16:48:41.214Z,9.20
2019-03-27T16:51:10.685Z,9.18
2019-03-27T16:53:40.260Z,9.14
2019-03-27T16:56:09.739Z,9.13
2019-03-27T16:58:39.134Z,9.04
2019-03-27T17:01:08.587Z,8.99
2019-03-27T17:03:37.895Z,9.01
2019-03-27T17:06:07.493Z,9.01
2019-03-27T17:08:36.849Z,8.97
2019-03-27T17:11:06.339Z,8.92
2019-03-27T17:13:35.730Z,8.88
2019-03-27T17:16:05.177Z,8.85
2019-03-27T17:18:34.506Z,8.80
2019-03-27T17:21:03.789Z,8.76
2019-03-27T17:23:33.250Z,8.68
2019-03-27T17:26:03.599Z,8.69
2019-03-27T17:28:32.937Z,8.66
2019-03-27T17:31:02.460Z,8.63
2019-03-27T17:33:31.948Z,8.59
2019-03-27T17:36:01.680Z,8.55
2019-03-27T17:38:31.157Z,8.51
2019-03-27T17:41:00.542Z,8.49
2019-03-27T17:43:30.025Z,8.45
2019-03-27T17:45:59.527Z,8.41
2019-03-27T17:48:29.113Z,8.40
2019-03-27T17:50:58.611Z,8.34
2019-03-27T17:53:32.008Z,8.33
2019-03-27T17:56:02.428Z,8.31
2019-03-27T17:58:32.407Z,8.29
2019-03-27T18:01:04.553Z,8.25
2019-03-27T18:03:34.981Z,8.25
2019-03-27T18:06:04.495Z,8.25
2019-03-27T18:08:33.876Z,8.21
2019-03-27T18:11:07.913Z,8.18
2019-03-27T18:13:35.895Z,8.18
2019-03-27T18:16:05.266Z,8.15
2019-03-27T18:18:34.718Z,8.15
2019-03-27T18:21:04.221Z,8.14
2019-03-27T18:23:45.308Z,8.13
2019-03-27T18:26:04.720Z,8.11
2019-03-27T18:28:34.226Z,8.10
2019-03-27T18:31:03.907Z,8.10
2019-03-27T18:33:34.167Z,8.06
2019-03-27T18:36:03.889Z,8.07
2019-03-27T18:38:33.662Z,8.07
2019-03-27T18:41:03.037Z,8.05
2019-03-27T18:43:32.552Z,8.05
2019-03-27T18:46:02.130Z,8.02
2019-03-27T18:48:31.496Z,8.00
2019-03-27T18:51:01.072Z,7.99
2019-03-27T18:53:30.871Z,7.96
2019-03-27T18:56:00.306Z,8.00
2019-03-27T18:58:29.819Z,7.97
2019-03-27T19:00:59.110Z,7.98
2019-03-27T19:03:28.610Z,7.95
2019-03-27T19:05:59.005Z,7.99
2019-03-27T19:08:29.238Z,8.00
2019-03-27T19:10:58.708Z,7.97
2019-03-27T19:13:28.098Z,7.96
2019-03-27T19:15:57.562Z,7.93
2019-03-27T19:18:27.061Z,7.95
2019-03-27T19:20:56.487Z,7.95
2019-03-27T19:23:25.822Z,7.91
2019-03-27T19:25:55.392Z,7.92
2019-03-27T19:28:24.707Z,7.95
2019-03-27T19:30:54.377Z,7.94
2019-03-27T19:33:24.123Z,7.89
2019-03-27T19:35:53.572Z,7.84
2019-03-27T19:38:23.120Z,7.80
2019-03-27T19:40:52.687Z,7.81
2019-03-27T19:43:23.299Z,7.77
2019-03-27T19:45:52.879Z,7.72
2019-03-27T19:48:22.509Z,7.68
2019-03-27T19:50:52.019Z,7.64
2019-03-27T19:53:21.594Z,7.60
2019-03-27T19:55:51.388Z,7.58
2019-03-27T19:58:22.546Z,7.53
2019-03-27T20:00:52.266Z,7.56
2019-03-27T20:03:21.926Z,7.55
2019-03-27T20:05:51.393Z,7.54
2019-03-27T20:08:21.078Z,7.52
2019-03-27T20:10:53.446Z,7.51
2019-03-27T20:13:22.989Z,7.55
2019-03-27T20:15:52.466Z,7.57
2019-03-27T20:18:21.899Z,7.57
2019-03-27T20:20:51.373Z,7.56
2019-03-27T20:23:20.918Z,7.53
2019-03-27T20:25:50.467Z,7.52
2019-03-27T20:28:20.931Z,7.52
2019-03-27T20:30:50.664Z,7.43
2019-03-27T20:33:21.288Z,7.39
2019-03-27T20:35:50.733Z,7.25
2019-03-27T20:38:20.246Z,7.18
2019-03-27T20:40:52.821Z,7.10
2019-03-27T20:43:22.691Z,7.10
2019-03-27T20:45:52.585Z,7.08
2019-03-27T20:48:24.212Z,7.01
2019-03-27T20:50:53.969Z,7.00
2019-03-27T20:53:23.435Z,6.99
2019-03-27T20:55:57.636Z,6.95
2019-03-27T20:58:27.172Z,6.90
2019-03-27T21:00:56.706Z,6.82
2019-03-27T21:03:26.666Z,6.75
2019-03-27T21:05:56.392Z,6.71
2019-03-27T21:08:25.867Z,6.69
2019-03-27T21:10:56.833Z,6.65
2019-03-27T21:13:26.373Z,6.64
2019-03-27T21:15:56.293Z,6.61
2019-03-27T21:18:25.819Z,6.63
2019-03-27T21:20:55.314Z,6.62
2019-03-27T21:23:24.806Z,6.63
2019-03-27T21:25:54.360Z,6.63
2019-03-27T21:28:23.862Z,6.61
2019-03-27T21:30:53.259Z,6.58
2019-03-27T21:33:22.541Z,6.58
2019-03-27T21:35:52.094Z,6.59
2019-03-27T21:38:21.565Z,6.58
2019-03-27T21:40:50.954Z,6.57
2019-03-27T21:43:20.673Z,6.57
2019-03-27T21:45:50.189Z,6.55
2019-03-27T21:48:20.734Z,6.53
2019-03-27T21:50:50.511Z,6.49
2019-03-27T21:53:20.986Z,6.48
2019-03-27T21:55:50.387Z,6.48
2019-03-27T21:58:19.872Z,6.46
2019-03-27T22:00:49.292Z,6.39
2019-03-27T22:03:18.669Z,6.35
2019-03-27T22:05:48.057Z,6.35
2019-03-27T22:08:17.581Z,6.33
2019-03-27T22:10:47.165Z,6.29
2019-03-27T22:13:16.462Z,6.28
2019-03-27T22:15:46.014Z,6.27
2019-03-27T22:18:15.582Z,6.25
2019-03-27T22:20:45.049Z,6.23
2019-03-27T22:23:14.606Z,6.23
2019-03-27T22:25:44.143Z,6.22
2019-03-27T22:28:13.585Z,6.24
2019-03-27T22:30:43.006Z,6.24
2019-03-27T22:33:12.374Z,6.20
2019-03-27T22:35:43.722Z,6.20
2019-03-27T22:38:13.260Z,6.19
2019-03-27T22:40:43.243Z,6.13
2019-03-27T22:43:12.823Z,6.13
2019-03-27T22:45:42.186Z,6.14
2019-03-27T22:48:11.666Z,6.13
2019-03-27T22:50:41.100Z,6.13
2019-03-27T22:53:10.513Z,6.15
2019-03-27T22:55:49.473Z,6.09
2019-03-27T22:58:13.041Z,6.04
2019-03-27T23:00:50.060Z,6.05
2019-03-27T23:03:19.532Z,6.07
2019-03-27T23:05:48.927Z,6.07
2019-03-27T23:08:18.448Z,6.07
2019-03-27T23:10:48.758Z,6.07
2019-03-27T23:13:18.227Z,6.08
2019-03-27T23:15:48.007Z,6.07
2019-03-27T23:18:17.598Z,6.07
2019-03-27T23:20:47.126Z,6.08
2019-03-27T23:23:16.446Z,6.08
2019-03-27T23:25:46.024Z,6.03
2019-03-27T23:28:15.408Z,6.02
2019-03-27T23:30:44.761Z,6.04
2019-03-27T23:33:14.214Z,6.02
2019-03-27T23:35:44.111Z,6.05
2019-03-27T23:38:13.747Z,6.04
2019-03-27T23:40:43.899Z,6.04
2019-03-27T23:43:13.529Z,6.04
2019-03-27T23:45:42.818Z,6.04
2019-03-27T23:48:12.335Z,6.01
2019-03-27T23:50:41.826Z,6.02
2019-03-27T23:53:11.268Z,6.02
2019-03-27T23:55:40.630Z,6.01
2019-03-27T23:58:09.965Z,6.01
